Aviation Digital Data Service (ADDS)

Output produced by METARs form (0051 UTC 22 September 2017)
found at http://www.aviationweather.gov/adds/metars/
 
ESSA 220020Z 02007KT 9999 BKN015 11/11 Q1025 TEMPO BKN013
TAF ESSA 212330Z 2200/2224 04008KT 9999 BKN015 
     TEMPO 2200/2206 BKN012 
     TEMPO 2206/2218 BKN009 
     PROB40 2218/2222 SHRA BKN007 BKN050CB
       
ESNX 220020Z AUTO 15010KT 8000 SCT004/// BKN006/// OVC009/// 08/08 Q1028
ESCF 220020Z AUTO 35005KT 9999 OVC017/// 10/10 Q1023
ESDF 220020Z AUTO 35004KT 9999 SCT013/// OVC016/// 11/11 Q1021
ESGG 220020Z 03005KT 1600 FG NSC 06/06 Q1023
TAF AMD ESGG 220048Z 2200/2224 06005KT 0200 FG VV002 
     TEMPO 2200/2208 4000 BR SCT005 
     TEMPO 2213/2218 BKN006 
     PROB40 2218/2224 4000 BR BKN004
       
ESGJ 220020Z 03004KT 9999 SCT005 BKN019 10/10 Q1023
TAF ESGJ 212330Z 2200/2202 05006KT 9999 SCT007 BKN015 
     PROB40 2200/2202 2500 BR BKN004
       
ESGR 220020Z AUTO 36002KT 0150 R01/0600N R19/0500N FG VV001 09/07 Q1024
ESIB 220020Z AUTO 07004KT 7000 BR BKN003/// OVC006/// 09/09 Q1024
TAF ESIB 211715Z 2118/2203 06006KT 9999 BKN012 
     PROB30 2121/2203 2000 MIFG NSC RMK MIL
       
ESKM 220020Z AUTO 33003KT 8000 BR OVC002/// 09/09 Q1027 REDZ
ESKN 220020Z 36006KT 9000 BR SCT009 11/10 Q1023
TAF ESKN 212330Z 2200/2224 03006KT 9999 SCT015 
     TEMPO 2200/2218 BKN010 
     PROB40 2218/2222 SHRA BKN012 BKN040CB
       
ESMK 220020Z AUTO 28005KT 9999 NCD 08/08 Q1021
ESMQ 220020Z 35008KT 7000 BR SCT004 BKN007 OVC014 12/12 Q1020
TAF AMD ESMQ 212351Z 2200/2202 36005KT 9999 SCT008 BKN030 
     TEMPO 2200/2202 BKN006
       
ESMS 220020Z 35005KT 9999 R17/0600V0800N R35/P1500D MIFG NSC 06/06 Q1021
TAF ESMS 212259Z 2200/2224 36004KT 9999 FEW030 
     TEMPO 2200/2207 2000 MIFG BR 
     TEMPO 2216/2219 BKN012 
     TEMPO 2219/2224 4000 -RADZ BR BKN008
       
ESMT 220020Z AUTO 06005KT 9999 OVC003/// 10/09 Q1022
ESMX 220020Z 36007KT 9999 OVC010 11/10 Q1022
TAF ESMX 212330Z 2200/2202 01006KT 9999 SCT010 BKN020 
     PROB40 2200/2202 4000 BR BKN006
       
ESND 220020Z AUTO 11003KT 9999 OVC013/// 08/07 Q1027
ESNG 220020Z AUTO 11007KT 3100 -RA BKN002/// OVC010/// 06/06 Q1028 REUP
TAF ESNG 220100Z 2202/2209 13008KT 8000 OVC002 
     TEMPO 2202/2209 2000 DZ BR OVC005
       
ESNK 220020Z AUTO VRB02KT 8000 BR FEW008/// BKN011/// OVC044/// 09/09 Q1028
ESNL 220020Z AUTO 13007KT 9999 FEW010/// SCT015/// BKN022/// 09/07 Q1029
ESNN 220020Z AUTO 00000KT 5000 BR BKN007/// OVC009/// 11/11 Q1028
TAF ESNN 212030Z 2121/2201 13004KT 9999 BKN017 
     PROB40 2121/2201 4000 BR BKN006
       
ESNO 220020Z AUTO VRB02KT 9999 BKN009/// BKN011/// OVC016/// 09/09 Q1029
ESNQ 220020Z AUTO 17010KT 9999 -RA OVC006/// 06/05 Q1027 REDZ
ESNS 220020Z AUTO 15005KT 9999 OVC006/// 11/10 Q1030 RERA
ESNU 220020Z 00000KT 9999 SCT009 BKN021 OVC045 09/09 Q1030
TAF ESNU 212330Z 2200/2209 16003KT 9999 SCT020 BKN040 
     PROB40 2206/2209 BKN010
       
ESNV 220020Z AUTO 14007KT 100V160 9999 BKN008/// OVC010/// 09/08 Q1027
ESNX 220020Z AUTO 15010KT 8000 SCT004/// BKN006/// OVC009/// 08/08 Q1028
ESNZ 220020Z AUTO 16011KT 9999 FEW010/// SCT015/// OVC022/// 09/07 Q1025
ESOE 220020Z AUTO 01008KT 0350 R01/1000N R19/1000N FG VV001 10/10 Q1025
TAF ESOE 220030Z 2201/2209 02008KT 0100 FG VV001 
     TEMPO 2201/2207 3000 BR VV002 
     BECMG 2207/2209 9999 NSW OVC005
       
ESOK 220020Z AUTO 05006KT 9999 OVC004/// 10/09 Q1025
ESOW 220020Z AUTO 02009KT 4700 BR FEW020/// 08/08 Q1025
ESPA 220020Z AUTO 15010KT 9999 OVC007/// 10/10 Q1031
ESPE 220020Z AUTO 12005KT 9999 FEW006/// BKN009/// BKN023/// OVC038/// 08/08 Q1029
ESSA 220020Z 02007KT 9999 BKN015 11/11 Q1025 TEMPO BKN013
TAF ESSA 212330Z 2200/2224 04008KT 9999 BKN015 
     TEMPO 2200/2206 BKN012 
     TEMPO 2206/2218 BKN009 
     PROB40 2218/2222 SHRA BKN007 BKN050CB
       
ESSB 220020Z AUTO 02005KT 9999 SCT010/// OVC021/// 13/12 Q1024
ESSD 220020Z AUTO 00000KT 2400 OVC010/// 09/09 Q1027
ESSL 220020Z AUTO 36003KT 340V040 9999 FEW012/// OVC019/// 10/10 Q1023
ESSP 220020Z AUTO 03005KT 9999 BKN006/// 11/11 Q1023
ESST 220020Z AUTO 26004KT 9999 OVC016/// 09/08 Q1026
ESSV 212020Z 06007KT 9999 SCT018 BKN032 BKN049 13/13 Q1021
TAF ESSV 220000Z 2201/2210 04008KT 9999 SCT020 BKN040 
     TEMPO 2201/2210 6000 -SHRA BKN010
       
ESTA 220020Z AUTO 11003KT 080V160 9999 NCD 09/07 Q1022
ESTL 220020Z AUTO 00000KT 0350NDV R29L/0600VP2000 BCFG FEW000/// 04/04 Q1022
ESUD 220020Z AUTO 13007KT 9999 BKN017/// OVC022/// 09/08 Q1027
ESUP 220020Z AUTO 14006KT 9999 OVC006/// ///// Q1031
ESUT 220020Z AUTO 14010G21KT 090V180 9999 OVC022/// 08/04 Q1024
ESSD 220020Z AUTO 00000KT 2400 OVC010/// 09/09 Q1027
ESSB 220020Z AUTO 02005KT 9999 SCT010/// OVC021/// 13/12 Q1024
ESNG 220020Z AUTO 11007KT 3100 -RA BKN002/// OVC010/// 06/06 Q1028 REUP
TAF ESNG 220100Z 2202/2209 13008KT 8000 OVC002 
     TEMPO 2202/2209 2000 DZ BR OVC005
       
ESMT 220020Z AUTO 06005KT 9999 OVC003/// 10/09 Q1022
ESUT 220020Z AUTO 14010G21KT 090V180 9999 OVC022/// 08/04 Q1024
ESGJ 220020Z 03004KT 9999 SCT005 BKN019 10/10 Q1023
TAF ESGJ 212330Z 2200/2202 05006KT 9999 SCT007 BKN015 
     PROB40 2200/2202 2500 BR BKN004
       
ESPA 220020Z AUTO 15010KT 9999 OVC007/// 10/10 Q1031
ESMQ 220020Z 35008KT 7000 BR SCT004 BKN007 OVC014 12/12 Q1020
TAF AMD ESMQ 212351Z 2200/2202 36005KT 9999 SCT008 BKN030 
     TEMPO 2200/2202 BKN006
       
ESOK 220020Z AUTO 05006KT 9999 OVC004/// 10/09 Q1025
ESNQ 220020Z AUTO 17010KT 9999 -RA OVC006/// 06/05 Q1027 REDZ
ESNK 220020Z AUTO VRB02KT 8000 BR FEW008/// BKN011/// OVC044/// 09/09 Q1028
ESMK 220020Z AUTO 28005KT 9999 NCD 08/08 Q1021
ESMX 220020Z 36007KT 9999 OVC010 11/10 Q1022
TAF ESMX 212330Z 2200/2202 01006KT 9999 SCT010 BKN020 
     PROB40 2200/2202 4000 BR BKN006
       
ESSP 220020Z AUTO 03005KT 9999 BKN006/// 11/11 Q1023
ESGG 220020Z 03005KT 1600 FG NSC 06/06 Q1023
TAF AMD ESGG 220048Z 2200/2224 06005KT 0200 FG VV002 
     TEMPO 2200/2208 4000 BR SCT005 
     TEMPO 2213/2218 BKN006 
     PROB40 2218/2224 4000 BR BKN004
       
ESTL 220020Z AUTO 00000KT 0350NDV R29L/0600VP2000 BCFG FEW000/// 04/04 Q1022
ESNL 220020Z AUTO 13007KT 9999 FEW010/// SCT015/// BKN022/// 09/07 Q1029
ESCF 220020Z AUTO 35005KT 9999 OVC017/// 10/10 Q1023
ESKM 220020Z AUTO 33003KT 8000 BR OVC002/// 09/09 Q1027 REDZ
ESOE 220020Z AUTO 01008KT 0350 R01/1000N R19/1000N FG VV001 10/10 Q1025
TAF ESOE 220030Z 2201/2209 02008KT 0100 FG VV001 
     TEMPO 2201/2207 3000 BR VV002 
     BECMG 2207/2209 9999 NSW OVC005
       
ESNO 220020Z AUTO VRB02KT 9999 BKN009/// BKN011/// OVC016/// 09/09 Q1029
ESUP 220020Z AUTO 14006KT 9999 OVC006/// ///// Q1031
ESDF 220020Z AUTO 35004KT 9999 SCT013/// OVC016/// 11/11 Q1021
ESSL 220020Z AUTO 36003KT 340V040 9999 FEW012/// OVC019/// 10/10 Q1023
ESIB 220020Z AUTO 07004KT 7000 BR BKN003/// OVC006/// 09/09 Q1024
TAF ESIB 211715Z 2118/2203 06006KT 9999 BKN012 
     PROB30 2121/2203 2000 MIFG NSC RMK MIL
       
ESKN 220020Z 36006KT 9000 BR SCT009 11/10 Q1023
TAF ESKN 212330Z 2200/2224 03006KT 9999 SCT015 
     TEMPO 2200/2218 BKN010 
     PROB40 2218/2222 SHRA BKN012 BKN040CB
       
ESNS 220020Z AUTO 15005KT 9999 OVC006/// 11/10 Q1030 RERA
ESGR 220020Z AUTO 36002KT 0150 R01/0600N R19/0500N FG VV001 09/07 Q1024
ESUD 220020Z AUTO 13007KT 9999 BKN017/// OVC022/// 09/08 Q1027
ESMS 220020Z 35005KT 9999 R17/0600V0800N R35/P1500D MIFG NSC 06/06 Q1021
TAF ESMS 212259Z 2200/2224 36004KT 9999 FEW030 
     TEMPO 2200/2207 2000 MIFG BR 
     TEMPO 2216/2219 BKN012 
     TEMPO 2219/2224 4000 -RADZ BR BKN008
       
ESNN 220020Z AUTO 00000KT 5000 BR BKN007/// OVC009/// 11/11 Q1028
TAF ESNN 212030Z 2121/2201 13004KT 9999 BKN017 
     PROB40 2121/2201 4000 BR BKN006
       
ESND 220020Z AUTO 11003KT 9999 OVC013/// 08/07 Q1027
ESST 220020Z AUTO 26004KT 9999 OVC016/// 09/08 Q1026
ESNU 220020Z 00000KT 9999 SCT009 BKN021 OVC045 09/09 Q1030
TAF ESNU 212330Z 2200/2209 16003KT 9999 SCT020 BKN040 
     PROB40 2206/2209 BKN010
       
ESOW 220020Z AUTO 02009KT 4700 BR FEW020/// 08/08 Q1025
ESPE 220020Z AUTO 12005KT 9999 FEW006/// BKN009/// BKN023/// OVC038/// 08/08 Q1029
ESNV 220020Z AUTO 14007KT 100V160 9999 BKN008/// OVC010/// 09/08 Q1027
ESSV 212020Z 06007KT 9999 SCT018 BKN032 BKN049 13/13 Q1021
TAF ESSV 220000Z 2201/2210 04008KT 9999 SCT020 BKN040 
     TEMPO 2201/2210 6000 -SHRA BKN010